sensor_id;sensor_type;location;lat;lon;timestamp;pressure;altitude;pressure_sealevel;temperature;humidity
79617;BME280;69097;52.132;5.422;2024-03-02T00:00:27;99949.84;;;8.22;79.26
79617;BME280;69097;52.132;5.422;2024-03-02T00:02:54;99950.63;;;8.23;78.89
79617;BME280;69097;52.132;5.422;2024-03-02T00:05:21;99948.22;;;8.25;79.39
79617;BME280;69097;52.132;5.422;2024-03-02T00:07:55;99942.63;;;8.25;79.97
79617;BME280;69097;52.132;5.422;2024-03-02T00:10:25;99941.06;;;8.24;79.48
79617;BME280;69097;52.132;5.422;2024-03-02T00:12:55;99948.22;;;8.25;79.43
79617;BME280;69097;52.132;5.422;2024-03-02T00:15:46;99955.38;;;8.26;79.25
79617;BME280;69097;52.132;5.422;2024-03-02T00:18:18;99958.50;;;8.28;79.12
79617;BME280;69097;52.132;5.422;2024-03-02T00:20:45;99968.03;;;8.30;79.17
79617;BME280;69097;52.132;5.422;2024-03-02T00:23:15;99977.97;;;8.31;78.91
79617;BME280;69097;52.132;5.422;2024-03-02T00:25:44;99977.53;;;8.33;79.73
79617;BME280;69097;52.132;5.422;2024-03-02T00:31:06;99999.03;;;8.36;79.51
79617;BME280;69097;52.132;5.422;2024-03-02T00:33:40;99993.44;;;8.36;79.20
79617;BME280;69097;52.132;5.422;2024-03-02T00:36:07;100014.56;;;8.37;80.02
79617;BME280;69097;52.132;5.422;2024-03-02T00:38:35;100022.94;;;8.37;79.92
79617;BME280;69097;52.132;5.422;2024-03-02T00:41:15;100034.56;;;8.35;79.21
79617;BME280;69097;52.132;5.422;2024-03-02T00:44:04;100046.09;;;8.37;80.02
79617;BME280;69097;52.132;5.422;2024-03-02T00:46:37;100054.47;;;8.37;80.68
79617;BME280;69097;52.132;5.422;2024-03-02T00:49:05;100059.69;;;8.35;81.03
79617;BME280;69097;52.132;5.422;2024-03-02T00:51:39;100059.34;;;8.33;81.65
79617;BME280;69097;52.132;5.422;2024-03-02T00:54:07;100043.91;;;8.29;81.74
79617;BME280;69097;52.132;5.422;2024-03-02T00:56:35;100053.16;;;8.26;82.33
79617;BME280;69097;52.132;5.422;2024-03-02T00:59:01;100056.78;;;8.23;82.70
79617;BME280;69097;52.132;5.422;2024-03-02T01:01:28;100064.03;;;8.20;83.16
79617;BME280;69097;52.132;5.422;2024-03-02T01:03:55;100066.91;;;8.17;84.55
79617;BME280;69097;52.132;5.422;2024-03-02T01:06:21;100059.06;;;8.12;85.14
79617;BME280;69097;52.132;5.422;2024-03-02T01:08:49;100065.53;;;8.09;84.64
79617;BME280;69097;52.132;5.422;2024-03-02T01:11:20;100064.38;;;8.06;86.20
79617;BME280;69097;52.132;5.422;2024-03-02T01:13:49;100062.44;;;8.03;86.10
79617;BME280;69097;52.132;5.422;2024-03-02T01:16:16;100076.50;;;8.00;86.29
79617;BME280;69097;52.132;5.422;2024-03-02T01:18:43;100071.78;;;7.97;86.32
79617;BME280;69097;52.132;5.422;2024-03-02T01:21:10;100052.75;;;7.92;86.93
79617;BME280;69097;52.132;5.422;2024-03-02T01:23:36;100057.72;;;7.84;87.76
79617;BME280;69097;52.132;5.422;2024-03-02T01:26:03;100063.38;;;7.81;88.44
79617;BME280;69097;52.132;5.422;2024-03-02T01:28:29;100071.41;;;7.79;89.01
79617;BME280;69097;52.132;5.422;2024-03-02T01:30:56;100070.78;;;7.71;89.07
79617;BME280;69097;52.132;5.422;2024-03-02T01:33:22;100078.78;;;7.69;88.70
79617;BME280;69097;52.132;5.422;2024-03-02T01:35:49;100073.28;;;7.66;88.68
79617;BME280;69097;52.132;5.422;2024-03-02T01:38:15;100076.16;;;7.62;89.00
79617;BME280;69097;52.132;5.422;2024-03-02T01:40:42;100067.09;;;7.58;89.29
79617;BME280;69097;52.132;5.422;2024-03-02T01:43:10;100072.22;;;7.60;89.81
79617;BME280;69097;52.132;5.422;2024-03-02T01:45:37;100074.75;;;7.54;89.85
79617;BME280;69097;52.132;5.422;2024-03-02T01:48:05;100078.31;;;7.55;90.48
79617;BME280;69097;52.132;5.422;2024-03-02T01:50:33;100082.75;;;7.52;90.22
79617;BME280;69097;52.132;5.422;2024-03-02T01:53:00;100083.19;;;7.50;90.10
79617;BME280;69097;52.132;5.422;2024-03-02T01:55:29;100087.63;;;7.48;90.44
79617;BME280;69097;52.132;5.422;2024-03-02T01:57:57;100081.25;;;7.47;90.86
79617;BME280;69097;52.132;5.422;2024-03-02T02:00:24;100083.31;;;7.43;90.51
79617;BME280;69097;52.132;5.422;2024-03-02T02:02:52;100083.00;;;7.41;90.69
79617;BME280;69097;52.132;5.422;2024-03-02T02:05:19;100082.28;;;7.37;90.40
79617;BME280;69097;52.132;5.422;2024-03-02T02:07:45;100074.41;;;7.32;90.90
79617;BME280;69097;52.132;5.422;2024-03-02T02:10:12;100068.47;;;7.30;91.46
79617;BME280;69097;52.132;5.422;2024-03-02T02:12:39;100078.00;;;7.33;91.18
79617;BME280;69097;52.132;5.422;2024-03-02T02:15:30;100083.56;;;7.33;91.74
79617;BME280;69097;52.132;5.422;2024-03-02T02:17:58;100091.06;;;7.36;92.19
79617;BME280;69097;52.132;5.422;2024-03-02T02:20:25;100085.06;;;7.37;92.63
79617;BME280;69097;52.132;5.422;2024-03-02T02:22:59;100083.50;;;7.36;92.13
79617;BME280;69097;52.132;5.422;2024-03-02T02:25:26;100079.97;;;7.32;92.61
79617;BME280;69097;52.132;5.422;2024-03-02T02:27:53;100078.13;;;7.26;93.25
79617;BME280;69097;52.132;5.422;2024-03-02T02:30:28;100075.06;;;7.20;94.09
79617;BME280;69097;52.132;5.422;2024-03-02T02:32:55;100083.06;;;7.18;94.46
79617;BME280;69097;52.132;5.422;2024-03-02T02:35:22;100067.91;;;7.19;94.82
79617;BME280;69097;52.132;5.422;2024-03-02T02:37:52;100069.47;;;7.20;95.26
79617;BME280;69097;52.132;5.422;2024-03-02T02:40:19;100087.06;;;7.17;95.37
79617;BME280;69097;52.132;5.422;2024-03-02T02:42:45;100099.41;;;7.16;95.17
79617;BME280;69097;52.132;5.422;2024-03-02T02:45:12;100093.50;;;7.14;95.53
79617;BME280;69097;52.132;5.422;2024-03-02T02:47:41;100096.31;;;7.14;95.85
79617;BME280;69097;52.132;5.422;2024-03-02T02:50:08;100090.00;;;7.10;95.80
79617;BME280;69097;52.132;5.422;2024-03-02T02:52:37;100086.06;;;7.08;96.27
79617;BME280;69097;52.132;5.422;2024-03-02T02:55:07;100086.13;;;7.04;96.33
79617;BME280;69097;52.132;5.422;2024-03-02T02:57:35;100089.25;;;7.06;96.19
79617;BME280;69097;52.132;5.422;2024-03-02T03:00:14;100102.06;;;7.04;96.30
79617;BME280;69097;52.132;5.422;2024-03-02T03:02:45;100102.00;;;7.07;96.26
79617;BME280;69097;52.132;5.422;2024-03-02T03:05:13;100096.88;;;7.06;96.58
79617;BME280;69097;52.132;5.422;2024-03-02T03:07:41;100105.28;;;7.02;95.97
79617;BME280;69097;52.132;5.422;2024-03-02T03:10:08;100092.22;;;6.99;96.79
79617;BME280;69097;52.132;5.422;2024-03-02T03:12:35;100095.00;;;6.99;96.56
79617;BME280;69097;52.132;5.422;2024-03-02T03:15:02;100090.63;;;6.98;96.88
79617;BME280;69097;52.132;5.422;2024-03-02T03:17:31;100095.84;;;6.96;96.69
79617;BME280;69097;52.132;5.422;2024-03-02T03:19:57;100095.91;;;6.93;96.46
79617;BME280;69097;52.132;5.422;2024-03-02T03:22:24;100092.34;;;6.92;96.10
79617;BME280;69097;52.132;5.422;2024-03-02T03:24:50;100096.69;;;6.93;96.11
79617;BME280;69097;52.132;5.422;2024-03-02T03:27:18;100100.78;;;6.89;96.11
79617;BME280;69097;52.132;5.422;2024-03-02T03:29:46;100096.81;;;6.86;95.97
79617;BME280;69097;52.132;5.422;2024-03-02T03:32:12;100112.41;;;6.84;96.04
79617;BME280;69097;52.132;5.422;2024-03-02T03:34:39;100112.84;;;6.82;95.69
79617;BME280;69097;52.132;5.422;2024-03-02T03:37:06;100114.91;;;6.78;95.55
79617;BME280;69097;52.132;5.422;2024-03-02T03:39:34;100105.41;;;6.76;95.27
79617;BME280;69097;52.132;5.422;2024-03-02T03:42:00;100115.75;;;6.75;95.15
79617;BME280;69097;52.132;5.422;2024-03-02T03:44:27;100109.00;;;6.73;94.76
79617;BME280;69097;52.132;5.422;2024-03-02T03:46:53;100117.38;;;6.73;95.25
79617;BME280;69097;52.132;5.422;2024-03-02T03:49:19;100108.25;;;6.72;95.42
79617;BME280;69097;52.132;5.422;2024-03-02T03:51:46;100125.25;;;6.78;95.40
79617;BME280;69097;52.132;5.422;2024-03-02T03:54:13;100123.69;;;6.77;94.61
79617;BME280;69097;52.132;5.422;2024-03-02T03:56:40;100131.69;;;6.75;94.43
79617;BME280;69097;52.132;5.422;2024-03-02T03:59:06;100120.94;;;6.73;94.78
79617;BME280;69097;52.132;5.422;2024-03-02T04:01:32;100120.53;;;6.75;95.12
79617;BME280;69097;52.132;5.422;2024-03-02T04:04:02;100118.09;;;6.77;94.97
79617;BME280;69097;52.132;5.422;2024-03-02T04:06:30;100118.91;;;6.77;94.81
79617;BME280;69097;52.132;5.422;2024-03-02T04:08:56;100124.41;;;6.81;94.53
79617;BME280;69097;52.132;5.422;2024-03-02T04:11:23;100126.03;;;6.78;94.64
79617;BME280;69097;52.132;5.422;2024-03-02T04:13:50;100124.84;;;6.79;94.45
79617;BME280;69097;52.132;5.422;2024-03-02T04:16:16;100136.34;;;6.81;94.55
79617;BME280;69097;52.132;5.422;2024-03-02T04:18:43;100141.09;;;6.84;95.09
79617;BME280;69097;52.132;5.422;2024-03-02T04:21:09;100133.13;;;6.83;94.67
79617;BME280;69097;52.132;5.422;2024-03-02T04:23:36;100147.47;;;6.81;94.34
79617;BME280;69097;52.132;5.422;2024-03-02T04:26:02;100141.47;;;6.83;94.14
79617;BME280;69097;52.132;5.422;2024-03-02T04:28:29;100135.91;;;6.83;94.86
79617;BME280;69097;52.132;5.422;2024-03-02T04:30:55;100135.91;;;6.83;94.52
79617;BME280;69097;52.132;5.422;2024-03-02T04:33:22;100137.94;;;6.82;93.88
79617;BME280;69097;52.132;5.422;2024-03-02T04:35:48;100130.69;;;6.85;94.34
79617;BME280;69097;52.132;5.422;2024-03-02T04:38:15;100140.22;;;6.87;94.14
79617;BME280;69097;52.132;5.422;2024-03-02T04:40:41;100147.00;;;6.86;93.80
79617;BME280;69097;52.132;5.422;2024-03-02T04:43:08;100146.66;;;6.84;93.57
79617;BME280;69097;52.132;5.422;2024-03-02T04:45:38;100150.63;;;6.83;93.77
79617;BME280;69097;52.132;5.422;2024-03-02T04:48:04;100154.59;;;6.86;94.26
79617;BME280;69097;52.132;5.422;2024-03-02T04:50:31;100159.00;;;6.83;93.56
79617;BME280;69097;52.132;5.422;2024-03-02T04:52:57;100170.53;;;6.85;93.68
79617;BME280;69097;52.132;5.422;2024-03-02T04:55:24;100171.31;;;6.86;93.54
79617;BME280;69097;52.132;5.422;2024-03-02T04:57:53;100172.09;;;6.86;93.71
79617;BME280;69097;52.132;5.422;2024-03-02T05:00:21;100176.03;;;6.89;93.78
79617;BME280;69097;52.132;5.422;2024-03-02T05:02:47;100167.72;;;6.85;93.17
79617;BME280;69097;52.132;5.422;2024-03-02T05:05:14;100169.28;;;6.86;93.57
79617;BME280;69097;52.132;5.422;2024-03-02T05:07:43;100176.09;;;6.85;93.12
79617;BME280;69097;52.132;5.422;2024-03-02T05:10:10;100172.13;;;6.83;93.21
79617;BME280;69097;52.132;5.422;2024-03-02T05:12:40;100174.16;;;6.82;93.44
79617;BME280;69097;52.132;5.422;2024-03-02T05:15:23;100174.16;;;6.82;92.94
79617;BME280;69097;52.132;5.422;2024-03-02T05:17:49;100180.16;;;6.81;92.27
79617;BME280;69097;52.132;5.422;2024-03-02T05:20:16;100180.97;;;6.78;91.91
79617;BME280;69097;52.132;5.422;2024-03-02T05:22:43;100175.41;;;6.78;92.11
79617;BME280;69097;52.132;5.422;2024-03-02T05:25:09;100178.56;;;6.80;91.89
79617;BME280;69097;52.132;5.422;2024-03-02T05:27:36;100170.63;;;6.78;91.01
79617;BME280;69097;52.132;5.422;2024-03-02T05:30:03;100179.78;;;6.79;91.75
79617;BME280;69097;52.132;5.422;2024-03-02T05:32:33;100186.50;;;6.81;91.63
79617;BME280;69097;52.132;5.422;2024-03-02T05:34:59;100185.31;;;6.82;91.01
79617;BME280;69097;52.132;5.422;2024-03-02T05:37:28;100186.06;;;6.83;90.73
79617;BME280;69097;52.132;5.422;2024-03-02T05:39:55;100181.72;;;6.82;90.65
79617;BME280;69097;52.132;5.422;2024-03-02T05:42:21;100177.72;;;6.83;90.65
79617;BME280;69097;52.132;5.422;2024-03-02T05:44:48;100173.06;;;6.76;90.15
79617;BME280;69097;52.132;5.422;2024-03-02T05:47:15;100183.50;;;6.72;89.55
79617;BME280;69097;52.132;5.422;2024-03-02T05:49:41;100180.81;;;6.65;89.07
79617;BME280;69097;52.132;5.422;2024-03-02T05:52:09;100180.88;;;6.62;89.41
79617;BME280;69097;52.132;5.422;2024-03-02T05:54:35;100182.84;;;6.61;88.92
79617;BME280;69097;52.132;5.422;2024-03-02T05:57:02;100181.28;;;6.60;88.17
79617;BME280;69097;52.132;5.422;2024-03-02T05:59:43;100185.22;;;6.63;88.32
79617;BME280;69097;52.132;5.422;2024-03-02T06:02:10;100201.16;;;6.62;87.50
79617;BME280;69097;52.132;5.422;2024-03-02T06:04:36;100196.78;;;6.61;87.98
79617;BME280;69097;52.132;5.422;2024-03-02T06:07:03;100201.16;;;6.62;88.12
79617;BME280;69097;52.132;5.422;2024-03-02T06:09:29;100201.94;;;6.63;88.00
79617;BME280;69097;52.132;5.422;2024-03-02T06:11:56;100207.94;;;6.61;88.28
79617;BME280;69097;52.132;5.422;2024-03-02T06:14:22;100210.34;;;6.59;88.23
79617;BME280;69097;52.132;5.422;2024-03-02T06:16:49;100213.94;;;6.60;88.43
79617;BME280;69097;52.132;5.422;2024-03-02T06:19:15;100217.53;;;6.60;88.31
79617;BME280;69097;52.132;5.422;2024-03-02T06:21:43;100215.56;;;6.57;89.42
79617;BME280;69097;52.132;5.422;2024-03-02T06:24:10;100220.72;;;6.59;89.61
79617;BME280;69097;52.132;5.422;2024-03-02T06:26:37;100222.72;;;6.58;89.55
79617;BME280;69097;52.132;5.422;2024-03-02T06:29:03;100225.50;;;6.58;89.42
79617;BME280;69097;52.132;5.422;2024-03-02T06:31:30;100229.84;;;6.59;89.48
79617;BME280;69097;52.132;5.422;2024-03-02T06:33:56;100231.44;;;6.60;89.79
79617;BME280;69097;52.132;5.422;2024-03-02T06:36:23;100226.72;;;6.57;89.89
79617;BME280;69097;52.132;5.422;2024-03-02T06:38:49;100239.44;;;6.58;90.30
79617;BME280;69097;52.132;5.422;2024-03-02T06:41:16;100237.03;;;6.60;89.86
79617;BME280;69097;52.132;5.422;2024-03-02T06:43:42;100244.16;;;6.61;90.21
79617;BME280;69097;52.132;5.422;2024-03-02T06:46:09;100243.38;;;6.61;90.16
79617;BME280;69097;52.132;5.422;2024-03-02T06:48:36;100244.16;;;6.61;89.66
79617;BME280;69097;52.132;5.422;2024-03-02T06:51:02;100239.75;;;6.64;89.80
79617;BME280;69097;52.132;5.422;2024-03-02T06:53:29;100230.59;;;6.63;89.44
79617;BME280;69097;52.132;5.422;2024-03-02T06:55:56;100239.34;;;6.65;89.59
79617;BME280;69097;52.132;5.422;2024-03-02T06:58:24;100232.97;;;6.65;89.64
79617;BME280;69097;52.132;5.422;2024-03-02T07:00:50;100235.75;;;6.65;89.49
79617;BME280;69097;52.132;5.422;2024-03-02T07:03:17;100244.09;;;6.65;89.48
79617;BME280;69097;52.132;5.422;2024-03-02T07:05:44;100235.75;;;6.65;89.33
79617;BME280;69097;52.132;5.422;2024-03-02T07:08:11;100229.75;;;6.66;90.07
79617;BME280;69097;52.132;5.422;2024-03-02T07:10:37;100234.13;;;6.67;89.60
79617;BME280;69097;52.132;5.422;2024-03-02T07:13:04;100234.13;;;6.67;89.63
79617;BME280;69097;52.132;5.422;2024-03-02T07:15:30;100234.13;;;6.67;89.20
79617;BME280;69097;52.132;5.422;2024-03-02T07:18:14;100240.03;;;6.69;88.91
79617;BME280;69097;52.132;5.422;2024-03-02T07:20:40;100240.03;;;6.69;89.33
79617;BME280;69097;52.132;5.422;2024-03-02T07:23:07;100239.94;;;6.76;89.26
79617;BME280;69097;52.132;5.422;2024-03-02T07:25:33;100244.69;;;6.79;89.30
79617;BME280;69097;52.132;5.422;2024-03-02T07:28:03;100247.41;;;6.83;88.96
79617;BME280;69097;52.132;5.422;2024-03-02T07:30:30;100247.34;;;6.86;88.84
79617;BME280;69097;52.132;5.422;2024-03-02T07:32:59;100245.72;;;6.89;87.89
79617;BME280;69097;52.132;5.422;2024-03-02T07:35:26;100250.81;;;6.94;87.85
79617;BME280;69097;52.132;5.422;2024-03-02T07:37:54;100261.06;;;7.00;88.47
79617;BME280;69097;52.132;5.422;2024-03-02T07:40:21;100258.22;;;7.04;88.43
79617;BME280;69097;52.132;5.422;2024-03-02T07:42:48;100262.16;;;7.06;88.57
79617;BME280;69097;52.132;5.422;2024-03-02T07:45:14;100261.31;;;7.09;87.45
79617;BME280;69097;52.132;5.422;2024-03-02T07:47:41;100264.81;;;7.13;87.29
79617;BME280;69097;52.132;5.422;2024-03-02T07:50:08;100255.25;;;7.14;88.03
79617;BME280;69097;52.132;5.422;2024-03-02T07:52:35;100268.34;;;7.17;87.35
79617;BME280;69097;52.132;5.422;2024-03-02T07:55:02;100265.13;;;7.19;87.32
79617;BME280;69097;52.132;5.422;2024-03-02T07:57:28;100269.53;;;7.16;87.67
79617;BME280;69097;52.132;5.422;2024-03-02T07:59:55;100263.97;;;7.16;87.83
79617;BME280;69097;52.132;5.422;2024-03-02T08:02:21;100271.50;;;7.19;87.71
79617;BME280;69097;52.132;5.422;2024-03-02T08:04:48;100280.31;;;7.18;87.12
79617;BME280;69097;52.132;5.422;2024-03-02T08:07:14;100280.31;;;7.18;87.13
79617;BME280;69097;52.132;5.422;2024-03-02T08:09:41;100280.34;;;7.14;87.45
79617;BME280;69097;52.132;5.422;2024-03-02T08:12:08;100278.34;;;7.15;87.28
79617;BME280;69097;52.132;5.422;2024-03-02T08:14:34;100288.72;;;7.14;87.61
79617;BME280;69097;52.132;5.422;2024-03-02T08:17:01;100293.06;;;7.15;87.72
79617;BME280;69097;52.132;5.422;2024-03-02T08:19:28;100289.06;;;7.16;88.07
79617;BME280;69097;52.132;5.422;2024-03-02T08:21:55;100288.66;;;7.18;87.67
79617;BME280;69097;52.132;5.422;2024-03-02T08:24:22;100285.44;;;7.19;87.42
79617;BME280;69097;52.132;5.422;2024-03-02T08:26:48;100289.44;;;7.18;87.13
79617;BME280;69097;52.132;5.422;2024-03-02T08:29:15;100283.75;;;7.25;87.24
79617;BME280;69097;52.132;5.422;2024-03-02T08:31:41;100281.63;;;7.33;87.57
79617;BME280;69097;52.132;5.422;2024-03-02T08:34:08;100285.38;;;7.46;86.69
79617;BME280;69097;52.132;5.422;2024-03-02T08:36:35;100284.03;;;7.54;85.66
79617;BME280;69097;52.132;5.422;2024-03-02T08:39:02;100289.06;;;7.63;86.52
79617;BME280;69097;52.132;5.422;2024-03-02T08:41:29;100286.94;;;7.70;85.38
79617;BME280;69097;52.132;5.422;2024-03-02T08:43:56;100283.22;;;7.77;86.17
79617;BME280;69097;52.132;5.422;2024-03-02T08:46:23;100284.66;;;7.85;85.64
79617;BME280;69097;52.132;5.422;2024-03-02T08:48:49;100291.31;;;7.91;85.01
79617;BME280;69097;52.132;5.422;2024-03-02T08:51:16;100283.94;;;8.00;85.20
79617;BME280;69097;52.132;5.422;2024-03-02T08:53:42;100284.56;;;8.08;84.94
79617;BME280;69097;52.132;5.422;2024-03-02T08:56:10;100276.91;;;8.12;83.97
79617;BME280;69097;52.132;5.422;2024-03-02T08:58:36;100280.41;;;8.16;84.13
79617;BME280;69097;52.132;5.422;2024-03-02T09:01:03;100280.28;;;8.23;84.13
79617;BME280;69097;52.132;5.422;2024-03-02T09:03:30;100282.66;;;8.24;83.39
79617;BME280;69097;52.132;5.422;2024-03-02T09:05:59;100280.16;;;8.30;83.38
79617;BME280;69097;52.132;5.422;2024-03-02T09:08:26;100287.16;;;8.38;82.91
79617;BME280;69097;52.132;5.422;2024-03-02T09:10:52;100290.25;;;8.43;82.70
79617;BME280;69097;52.132;5.422;2024-03-02T09:13:19;100277.69;;;8.51;82.18
79617;BME280;69097;52.132;5.422;2024-03-02T09:15:46;100271.56;;;8.56;81.24
79617;BME280;69097;52.132;5.422;2024-03-02T09:18:12;100285.31;;;8.67;81.23
79617;BME280;69097;52.132;5.422;2024-03-02T09:20:42;100289.44;;;8.79;81.01
79617;BME280;69097;52.132;5.422;2024-03-02T09:23:08;100286.13;;;8.84;79.71
79617;BME280;69097;52.132;5.422;2024-03-02T09:25:35;100281.16;;;8.91;80.88
79617;BME280;69097;52.132;5.422;2024-03-02T09:28:03;100282.47;;;9.03;79.29
79617;BME280;69097;52.132;5.422;2024-03-02T09:30:30;100277.59;;;9.07;78.92
79617;BME280;69097;52.132;5.422;2024-03-02T09:32:57;100278.63;;;9.13;77.66
79617;BME280;69097;52.132;5.422;2024-03-02T09:35:26;100284.34;;;9.25;78.17
79617;BME280;69097;52.132;5.422;2024-03-02T09:37:53;100296.81;;;9.37;77.95
79617;BME280;69097;52.132;5.422;2024-03-02T09:40:21;100287.72;;;9.49;77.03
79617;BME280;69097;52.132;5.422;2024-03-02T09:42:49;100291.63;;;9.51;76.62
79617;BME280;69097;52.132;5.422;2024-03-02T09:45:22;100301.31;;;9.63;75.59
79617;BME280;69097;52.132;5.422;2024-03-02T09:47:50;100302.63;;;9.74;75.68
79617;BME280;69097;52.132;5.422;2024-03-02T09:50:17;100301.78;;;9.90;74.52
79617;BME280;69097;52.132;5.422;2024-03-02T09:52:43;100300.63;;;10.04;73.34
79617;BME280;69097;52.132;5.422;2024-03-02T09:55:11;100293.97;;;10.14;72.87
79617;BME280;69097;52.132;5.422;2024-03-02T09:57:38;100303.78;;;10.34;71.74
79617;BME280;69097;52.132;5.422;2024-03-02T10:00:07;100299.66;;;10.51;72.29
79617;BME280;69097;52.132;5.422;2024-03-02T10:02:34;100298.00;;;10.79;71.90
79617;BME280;69097;52.132;5.422;2024-03-02T10:05:00;100298.69;;;11.08;71.02
79617;BME280;69097;52.132;5.422;2024-03-02T10:07:30;100289.56;;;11.29;69.88
79617;BME280;69097;52.132;5.422;2024-03-02T10:09:57;100289.19;;;11.40;68.90
79617;BME280;69097;52.132;5.422;2024-03-02T10:12:23;100293.53;;;11.53;66.92
79617;BME280;69097;52.132;5.422;2024-03-02T10:15:03;100293.22;;;11.64;67.35
79617;BME280;69097;52.132;5.422;2024-03-02T10:17:31;100284.09;;;11.72;67.01
79617;BME280;69097;52.132;5.422;2024-03-02T10:19:58;100293.25;;;11.85;66.76
79617;BME280;69097;52.132;5.422;2024-03-02T10:22:24;100292.09;;;11.95;65.56
79617;BME280;69097;52.132;5.422;2024-03-02T10:24:53;100284.19;;;12.03;66.33
79617;BME280;69097;52.132;5.422;2024-03-02T10:27:27;100290.19;;;12.14;65.55
79617;BME280;69097;52.132;5.422;2024-03-02T10:29:54;100289.69;;;12.28;64.74
79617;BME280;69097;52.132;5.422;2024-03-02T10:32:22;100294.31;;;12.44;66.38
79617;BME280;69097;52.132;5.422;2024-03-02T10:34:50;100291.00;;;12.67;63.07
79617;BME280;69097;52.132;5.422;2024-03-02T10:37:16;100284.28;;;12.64;63.12
79617;BME280;69097;52.132;5.422;2024-03-02T10:39:46;100283.69;;;12.69;63.28
79617;BME280;69097;52.132;5.422;2024-03-02T10:42:14;100270.13;;;12.77;63.64
79617;BME280;69097;52.132;5.422;2024-03-02T10:44:41;100273.59;;;12.81;61.43
79617;BME280;69097;52.132;5.422;2024-03-02T10:47:08;100268.56;;;12.85;62.53
79617;BME280;69097;52.132;5.422;2024-03-02T10:49:36;100269.56;;;13.00;61.79
79617;BME280;69097;52.132;5.422;2024-03-02T10:52:04;100267.22;;;12.89;60.94
79617;BME280;69097;52.132;5.422;2024-03-02T10:54:31;100267.69;;;12.88;61.76
79617;BME280;69097;52.132;5.422;2024-03-02T10:57:04;100255.75;;;12.84;62.12
79617;BME280;69097;52.132;5.422;2024-03-02T10:59:33;100256.09;;;12.86;60.74
79617;BME280;69097;52.132;5.422;2024-03-02T11:02:02;100252.19;;;12.92;60.59
79617;BME280;69097;52.132;5.422;2024-03-02T11:04:31;100245.78;;;12.92;61.45
79617;BME280;69097;52.132;5.422;2024-03-02T11:07:08;100248.91;;;12.94;61.92
79617;BME280;69097;52.132;5.422;2024-03-02T11:09:42;100250.00;;;12.96;61.06
79617;BME280;69097;52.132;5.422;2024-03-02T11:12:29;100248.22;;;13.11;63.04
79617;BME280;69097;52.132;5.422;2024-03-02T11:14:56;100246.34;;;13.17;62.36
79617;BME280;69097;52.132;5.422;2024-03-02T11:17:23;100258.88;;;13.25;61.36
79617;BME280;69097;52.132;5.422;2024-03-02T11:19:50;100258.44;;;13.36;61.75
79617;BME280;69097;52.132;5.422;2024-03-02T11:22:17;100257.66;;;13.35;58.50
79617;BME280;69097;52.132;5.422;2024-03-02T11:24:51;100263.28;;;13.35;59.41
79617;BME280;69097;52.132;5.422;2024-03-02T11:33:00;100244.09;;;13.61;57.28
79617;BME280;69097;52.132;5.422;2024-03-02T11:35:33;100246.72;;;13.55;57.19
79617;BME280;69097;52.132;5.422;2024-03-02T11:38:01;100248.16;;;13.69;57.40
79617;BME280;69097;52.132;5.422;2024-03-02T11:40:28;100249.25;;;13.72;57.08
79617;BME280;69097;52.132;5.422;2024-03-02T11:42:54;100245.97;;;13.73;57.53
79617;BME280;69097;52.132;5.422;2024-03-02T11:45:26;100239.56;;;13.82;57.32
79617;BME280;69097;52.132;5.422;2024-03-02T11:47:57;100231.06;;;13.91;56.84
79617;BME280;69097;52.132;5.422;2024-03-02T11:50:30;100237.19;;;13.89;57.03
79617;BME280;69097;52.132;5.422;2024-03-02T11:53:00;100227.94;;;13.98;55.78
79617;BME280;69097;52.132;5.422;2024-03-02T11:55:26;100228.72;;;13.98;55.68
79617;BME280;69097;52.132;5.422;2024-03-02T11:57:53;100224.00;;;14.04;56.68
79617;BME280;69097;52.132;5.422;2024-03-02T12:00:20;100221.50;;;14.15;55.83
79617;BME280;69097;52.132;5.422;2024-03-02T12:03:01;100224.75;;;14.23;56.10
79617;BME280;69097;52.132;5.422;2024-03-02T12:05:28;100218.97;;;14.26;55.87
79617;BME280;69097;52.132;5.422;2024-03-02T12:07:57;100218.97;;;14.26;53.85
79617;BME280;69097;52.132;5.422;2024-03-02T12:10:25;100218.38;;;14.13;53.73
79617;BME280;69097;52.132;5.422;2024-03-02T12:13:02;100205.22;;;14.01;55.21
79617;BME280;69097;52.132;5.422;2024-03-02T12:15:30;100199.59;;;13.92;53.66
79617;BME280;69097;52.132;5.422;2024-03-02T12:18:01;100204.63;;;13.88;54.64
79617;BME280;69097;52.132;5.422;2024-03-02T12:20:29;100200.53;;;13.89;54.31
79617;BME280;69097;52.132;5.422;2024-03-02T12:23:01;100198.97;;;13.79;54.84
79617;BME280;69097;52.132;5.422;2024-03-02T12:25:29;100198.06;;;13.73;56.87
79617;BME280;69097;52.132;5.422;2024-03-02T12:27:58;100196.31;;;13.57;57.78
79617;BME280;69097;52.132;5.422;2024-03-02T12:30:27;100198.34;;;13.57;58.41
79617;BME280;69097;52.132;5.422;2024-03-02T12:32:56;100198.34;;;13.57;55.89
79617;BME280;69097;52.132;5.422;2024-03-02T12:35:24;100190.69;;;13.48;56.56
79617;BME280;69097;52.132;5.422;2024-03-02T12:37:52;100196.78;;;13.38;59.83
79617;BME280;69097;52.132;5.422;2024-03-02T12:40:20;100186.31;;;13.29;57.89
79617;BME280;69097;52.132;5.422;2024-03-02T12:42:49;100199.59;;;13.29;59.54
79617;BME280;69097;52.132;5.422;2024-03-02T12:45:15;100187.69;;;13.25;59.95
79617;BME280;69097;52.132;5.422;2024-03-02T12:47:42;100172.69;;;13.28;60.41
79617;BME280;69097;52.132;5.422;2024-03-02T12:50:09;100177.22;;;13.25;58.79
79617;BME280;69097;52.132;5.422;2024-03-02T12:52:36;100166.72;;;13.17;59.19
79617;BME280;69097;52.132;5.422;2024-03-02T12:55:05;100162.34;;;13.16;60.02
79617;BME280;69097;52.132;5.422;2024-03-02T12:57:33;100163.28;;;13.22;60.92
79617;BME280;69097;52.132;5.422;2024-03-02T13:00:05;100162.66;;;13.18;58.67
79617;BME280;69097;52.132;5.422;2024-03-02T13:02:36;100159.03;;;13.08;59.62
79617;BME280;69097;52.132;5.422;2024-03-02T13:05:03;100167.81;;;13.10;62.75
79617;BME280;69097;52.132;5.422;2024-03-02T13:07:32;100170.66;;;13.19;59.41
79617;BME280;69097;52.132;5.422;2024-03-02T13:10:02;100162.03;;;13.14;59.64